Aérodrome :
LOGIN :

S'inscrire | Disclaimer

   EN    FR    IT 

 










Légende :    VFR   VFR Marginal   IFR   IFR Intensif   IFR Très Intensif
Visi : 
Plafond : 
>= 8 km
>= 3000ft
5 à 8 km
1000 à 3000 ft
1500m à 5 km
500 à 1000 ft
800 à 1500m
200 à 500 ft
< 800m
< 200 ft
Symboles :   Orages  Brouillard  Fortes neiges  Fortes précipitations  Vent > 20 kt
SIGMETs :   Divers  Orages  Givrage  Turbulence  Onde Orograph.  Cendres Volcan.







- Altitude de l'aérodrome : 230 ft


ETHB - Buckeburg Army

DERNIER METAR :
  • 252020Z 17005KT 9999 FEW020 02/00 Q1009 BLU+BLU+

METARs EXPIRÉS :
  • 251920Z 17003KT 9999 FEW022 03/02 Q1009 BLU+BLU+
  • 251820Z 25004KT 9999 FEW022 06/01 Q1009 BLU+BLU+

TAF TAF ETHB
Valide du 25 à 17h jusqu'au 26 à 02h UTC


251611Z 2517/2602 27008KT 9999 NSW SCT020 SCT040
Pas de NOTAMs connus pour ce terrain.
1 SIGMET publié pour la FIR Bremen (EDWW) :
 
Turbulence forte
EDWW SIGMET 1 VALID 252015/260000 EDZH
EDWW BREMEN FIR SEV TURB FCST N OF N5345 AND E OF E01100 FL170/230 MOV NE NC=



MET'MAP, la Météo Aéronautique d'un coup d'oeil ! - Copyright ORBIFLY Décembre 2007 - Disclaimer

ORBIFLY MET'MAP TEAM :

Programmation & Développement : Alexandra Zaïnal
Conception & Développement : Baudouin d'Aumeries
Co-Programmation & Développement : Marc-Olivier Méhu
Soutien technique & logistique : Manuel Goepfert

Contact : metmap@orbifly.com




SOURCES & CREDITS :

   NOAA